Richlands, North Carolina
Current Conditions -  °F | °C
As of 11:15 AM on Thursday 29 Jan 2015 (Local Time) from KOAJ Reporting Station
Clear Clear  
Wind Chill: 39°   Ceiling: Unl
Heat Index: 39°   Visibility: 10mi
Dew Point: 16°   Wind: 0mph
Humidity: 39%   Direction: NA
Pressure: 30.35"   Gusts: NA
Location:  34.9°N, 77.55°W
Report Text: KOAJ 291615Z AUTO 00000KT 10SM CLR 04/M09 A3035 RMK AO1
Loading
Personal Weather Stations






























Interactive Weather Map New forecast layout! Learn more

10-Day Weather Forecast

Advertisements
Track Severe Weather on mobile